Time;durP1;ratioP1;P1;durP2;ratioP2;P2;SDS_P1;SDS_P2;PMS_P1;PMS_P2;Temp;Humidity;BMP_temperature;BMP_pressure;BME280_temperature;BME280_humidity;BME280_pressure;Samples;Min_cycle;Max_cycle;Signal;HPM_P1;HPM_P2
2022/05/24 00:01:44;;;;;;;;;;;21.70;54.20;;;;;;465851;255;1214;-40
2022/05/24 00:03:45;;;;;;;;;;;21.80;54.20;;;;;;468019;254;1219;-39
2022/05/24 00:05:48;;;;;;;;;;;21.70;54.30;;;;;;465704;255;1669;-40
2022/05/24 00:07:49;;;;;;;;;;;21.80;54.30;;;;;;467610;255;1277;-40
2022/05/24 00:09:50;;;;;;;;;;;21.80;54.30;;;;;;465826;255;1600;-39
2022/05/24 00:11:51;;;;;;;;;;;21.80;54.30;;;;;;467820;254;2192;-39
2022/05/24 00:13:53;;;;;;;;;;;21.80;54.30;;;;;;465969;255;1634;-39
2022/05/24 00:15:54;;;;;;;;;;;21.70;54.30;;;;;;467801;254;1227;-39
2022/05/24 00:17:55;;;;;;;;;;;21.70;54.30;;;;;;465822;255;1260;-39
2022/05/24 00:19:57;;;;;;;;;;;21.70;54.40;;;;;;467934;254;1252;-40
2022/05/24 00:21:58;;;;;;;;;;;21.70;54.30;;;;;;465809;255;1336;-40
2022/05/24 00:24:00;;;;;;;;;;;21.70;54.30;;;;;;468039;254;1406;-39
2022/05/24 00:26:01;;;;;;;;;;;21.80;54.30;;;;;;466040;255;1279;-39
2022/05/24 00:28:02;;;;;;;;;;;21.70;54.30;;;;;;467908;254;1174;-39
2022/05/24 00:30:04;;;;;;;;;;;21.70;54.20;;;;;;466001;255;1253;-40
2022/05/24 00:32:05;;;;;;;;;;;21.80;54.20;;;;;;468055;254;2204;-40
2022/05/24 00:34:07;;;;;;;;;;;21.70;54.30;;;;;;466131;255;1174;-39
2022/05/24 00:36:08;;;;;;;;;;;21.70;54.40;;;;;;467819;254;1264;-39
2022/05/24 00:38:09;;;;;;;;;;;21.70;54.40;;;;;;466261;255;1172;-39
2022/05/24 00:40:11;;;;;;;;;;;21.70;54.30;;;;;;468087;254;1258;-39
2022/05/24 00:42:12;;;;;;;;;;;21.70;54.30;;;;;;465746;255;1223;-39
2022/05/24 00:44:14;;;;;;;;;;;21.70;54.30;;;;;;467858;254;1218;-39
2022/05/24 00:46:15;;;;;;;;;;;21.70;54.30;;;;;;465799;255;1390;-39
2022/05/24 00:48:16;;;;;;;;;;;21.70;54.30;;;;;;467736;254;1256;-40
2022/05/24 00:50:17;;;;;;;;;;;21.70;54.30;;;;;;465757;255;1335;-39
2022/05/24 00:52:19;;;;;;;;;;;21.70;54.30;;;;;;467572;255;2152;-40
2022/05/24 00:54:20;;;;;;;;;;;21.70;54.30;;;;;;465884;255;1077;-39
2022/05/24 00:56:21;;;;;;;;;;;21.70;54.30;;;;;;467623;254;1299;-39
2022/05/24 00:58:23;;;;;;;;;;;21.70;54.30;;;;;;465950;255;1276;-39
2022/05/24 01:00:24;;;;;;;;;;;21.70;54.30;;;;;;467608;254;1322;-39
2022/05/24 01:02:25;;;;;;;;;;;21.70;54.20;;;;;;465879;255;1240;-40
2022/05/24 01:04:26;;;;;;;;;;;21.70;54.20;;;;;;468048;254;1302;-39
2022/05/24 01:06:28;;;;;;;;;;;21.70;54.30;;;;;;465881;255;1258;-40
2022/05/24 01:08:32;;;;;;;;;;;21.80;54.30;;;;;;467783;255;1266;-40
2022/05/24 01:10:30;;;;;;;;;;;21.70;54.20;;;;;;465609;256;2621;-40
2022/05/24 01:12:32;;;;;;;;;;;21.80;54.20;;;;;;467633;254;2204;-39
2022/05/24 01:14:33;;;;;;;;;;;21.80;54.20;;;;;;465818;255;1788;-39
2022/05/24 01:16:35;;;;;;;;;;;21.70;54.10;;;;;;467667;255;1206;-39
2022/05/24 01:18:36;;;;;;;;;;;21.70;54.20;;;;;;465858;255;1219;-39
2022/05/24 01:20:38;;;;;;;;;;;21.70;54.20;;;;;;467624;255;1300;-39
2022/05/24 01:22:39;;;;;;;;;;;21.70;54.20;;;;;;466035;255;1216;-40
2022/05/24 01:24:40;;;;;;;;;;;21.70;54.20;;;;;;467641;255;1473;-39
2022/05/24 01:26:42;;;;;;;;;;;21.70;54.30;;;;;;465764;255;1318;-40
2022/05/24 01:28:43;;;;;;;;;;;21.70;54.20;;;;;;467616;255;1200;-40
2022/05/24 01:30:44;;;;;;;;;;;21.70;54.30;;;;;;465969;255;1687;-40
2022/05/24 01:37:24;;;;;;;;;;;21.70;54.20;;;;;;467693;254;1329;-39
2022/05/24 01:39:25;;;;;;;;;;;21.70;54.20;;;;;;466220;255;1286;-40
2022/05/24 01:41:26;;;;;;;;;;;21.70;54.20;;;;;;467578;254;1301;-39
2022/05/24 01:43:28;;;;;;;;;;;21.70;54.20;;;;;;465784;255;1390;-39
2022/05/24 01:45:29;;;;;;;;;;;21.80;54.20;;;;;;467974;254;1426;-39
2022/05/24 01:47:31;;;;;;;;;;;21.70;54.20;;;;;;465791;255;1307;-39
2022/05/24 01:49:32;;;;;;;;;;;21.70;54.20;;;;;;467634;255;1351;-40
2022/05/24 01:51:33;;;;;;;;;;;21.70;54.40;;;;;;465758;255;1249;-40
2022/05/24 01:53:36;;;;;;;;;;;21.70;54.30;;;;;;467641;255;2253;-39
2022/05/24 01:55:36;;;;;;;;;;;21.70;54.30;;;;;;465747;256;2495;-39
2022/05/24 01:57:37;;;;;;;;;;;21.70;54.30;;;;;;467809;254;1163;-39
2022/05/24 01:59:39;;;;;;;;;;;21.70;54.20;;;;;;466227;255;1243;-39
2022/05/24 02:01:40;;;;;;;;;;;21.70;54.20;;;;;;467951;254;1243;-40
2022/05/24 02:03:41;;;;;;;;;;;21.70;54.10;;;;;;465832;255;1197;-39
2022/05/24 02:05:42;;;;;;;;;;;21.80;54.20;;;;;;467989;254;1186;-39
2022/05/24 02:07:44;;;;;;;;;;;21.70;54.10;;;;;;465767;255;1291;-39
2022/05/24 02:09:45;;;;;;;;;;;21.70;54.30;;;;;;468010;254;1283;-39
2022/05/24 02:11:46;;;;;;;;;;;21.70;54.30;;;;;;466084;255;1183;-39
2022/05/24 02:13:48;;;;;;;;;;;21.70;54.40;;;;;;468041;254;2125;-39
2022/05/24 02:15:49;;;;;;;;;;;21.70;54.40;;;;;;465953;255;1285;-39
2022/05/24 02:17:50;;;;;;;;;;;21.70;54.40;;;;;;467690;254;1361;-40
2022/05/24 02:19:52;;;;;;;;;;;21.70;54.30;;;;;;465791;255;1310;-39
2022/05/24 02:21:53;;;;;;;;;;;21.70;54.20;;;;;;467981;254;1254;-40
2022/05/24 02:23:54;;;;;;;;;;;21.70;54.20;;;;;;465941;255;1475;-39
2022/05/24 02:25:56;;;;;;;;;;;21.70;54.20;;;;;;467936;254;1261;-40
2022/05/24 02:27:57;;;;;;;;;;;21.70;54.20;;;;;;465787;255;1259;-39
2022/05/24 02:29:58;;;;;;;;;;;21.70;54.30;;;;;;467650;255;1376;-40
2022/05/24 02:31:59;;;;;;;;;;;21.70;54.30;;;;;;466104;255;1234;-39
2022/05/24 02:34:01;;;;;;;;;;;21.70;54.30;;;;;;468068;254;2196;-40
2022/05/24 02:36:02;;;;;;;;;;;21.70;54.30;;;;;;465994;255;1412;-39
2022/05/24 02:38:03;;;;;;;;;;;21.70;54.30;;;;;;467622;254;1203;-40
2022/05/24 02:42:24;;;;;;;;;;;21.70;54.30;;;;;;467646;254;1220;-40
2022/05/24 02:44:25;;;;;;;;;;;21.70;54.30;;;;;;466082;255;1322;-39
2022/05/24 02:46:27;;;;;;;;;;;21.70;54.30;;;;;;467611;255;1297;-39
2022/05/24 02:48:28;;;;;;;;;;;21.70;54.10;;;;;;465811;255;1351;-39
2022/05/24 02:50:30;;;;;;;;;;;21.70;54.20;;;;;;468082;254;1250;-40
2022/05/24 02:52:31;;;;;;;;;;;21.70;54.20;;;;;;465778;255;2205;-39
2022/05/24 02:54:32;;;;;;;;;;;21.70;54.30;;;;;;467786;254;1234;-39
2022/05/24 02:56:34;;;;;;;;;;;21.70;54.30;;;;;;466001;255;1262;-39
2022/05/24 02:58:35;;;;;;;;;;;21.70;54.20;;;;;;468044;254;1341;-39
2022/05/24 03:00:36;;;;;;;;;;;21.70;54.30;;;;;;465928;255;1473;-40
2022/05/24 03:02:38;;;;;;;;;;;21.70;54.30;;;;;;467885;254;1248;-40
2022/05/24 03:04:39;;;;;;;;;;;21.70;54.20;;;;;;465808;255;1169;-40
2022/05/24 03:11:19;;;;;;;;;;;21.70;54.20;;;;;;468055;254;1266;-40
2022/05/24 03:15:40;;;;;;;;;;;21.70;54.30;;;;;;467989;254;1290;-39
2022/05/24 03:17:41;;;;;;;;;;;21.70;54.30;;;;;;465914;255;1312;-39
2022/05/24 03:19:42;;;;;;;;;;;21.70;54.30;;;;;;468047;254;1227;-39
2022/05/24 03:21:44;;;;;;;;;;;21.70;54.40;;;;;;465661;255;1225;-40
2022/05/24 03:23:45;;;;;;;;;;;21.70;54.30;;;;;;468028;254;1230;-39
2022/05/24 03:25:46;;;;;;;;;;;21.70;54.30;;;;;;465781;255;1455;-40
2022/05/24 03:27:48;;;;;;;;;;;21.70;54.30;;;;;;467615;255;1317;-39
2022/05/24 03:29:49;;;;;;;;;;;21.70;54.30;;;;;;465820;255;1235;-40
2022/05/24 03:31:50;;;;;;;;;;;21.70;54.20;;;;;;467531;255;1184;-40
2022/05/24 03:33:52;;;;;;;;;;;21.70;54.20;;;;;;465826;255;2217;-40
2022/05/24 03:35:53;;;;;;;;;;;21.70;54.40;;;;;;467527;254;1602;-40
2022/05/24 03:37:54;;;;;;;;;;;21.70;54.40;;;;;;465701;255;1184;-40
2022/05/24 03:39:56;;;;;;;;;;;21.70;54.30;;;;;;467813;254;1240;-39
2022/05/24 03:41:57;;;;;;;;;;;21.70;54.30;;;;;;465953;255;1268;-39
2022/05/24 03:43:58;;;;;;;;;;;21.70;54.20;;;;;;467718;254;1344;-39
2022/05/24 03:45:59;;;;;;;;;;;21.70;54.20;;;;;;465758;255;1204;-40
2022/05/24 03:48:01;;;;;;;;;;;21.70;54.30;;;;;;467861;254;1204;-40
2022/05/24 03:50:02;;;;;;;;;;;21.80;54.20;;;;;;466021;255;1219;-39
2022/05/24 03:52:03;;;;;;;;;;;21.70;54.20;;;;;;467464;255;1955;-39
2022/05/24 03:54:06;;;;;;;;;;;21.80;54.20;;;;;;466160;255;2135;-40
2022/05/24 03:56:06;;;;;;;;;;;21.80;54.10;;;;;;467549;255;2217;-39
2022/05/24 03:58:07;;;;;;;;;;;21.80;54.20;;;;;;465713;255;1208;-39
2022/05/24 04:00:09;;;;;;;;;;;21.80;54.20;;;;;;468021;254;1267;-40
2022/05/24 04:02:11;;;;;;;;;;;21.80;54.20;;;;;;465952;255;1329;-40
2022/05/24 04:04:12;;;;;;;;;;;21.80;54.10;;;;;;467733;254;1518;-40
2022/05/24 04:06:14;;;;;;;;;;;21.70;54.20;;;;;;465700;255;1374;-40
2022/05/24 04:08:14;;;;;;;;;;;21.80;54.20;;;;;;467982;254;2642;-39
2022/05/24 04:10:16;;;;;;;;;;;21.80;54.10;;;;;;465740;255;1345;-40
2022/05/24 04:12:17;;;;;;;;;;;21.80;54.10;;;;;;467897;254;1647;-40
2022/05/24 04:14:18;;;;;;;;;;;21.80;54.10;;;;;;466001;255;2197;-40
2022/05/24 04:16:20;;;;;;;;;;;21.80;54.20;;;;;;467794;254;1277;-39
2022/05/24 04:18:21;;;;;;;;;;;21.80;54.20;;;;;;466049;255;1246;-39
2022/05/24 04:20:22;;;;;;;;;;;21.80;54.20;;;;;;468017;254;1173;-39
2022/05/24 04:22:24;;;;;;;;;;;21.80;54.10;;;;;;465922;255;1250;-40
2022/05/24 04:24:25;;;;;;;;;;;21.80;54.20;;;;;;467761;254;1299;-39
2022/05/24 04:26:26;;;;;;;;;;;21.80;54.10;;;;;;465926;255;1248;-40
2022/05/24 04:28:28;;;;;;;;;;;21.80;54.10;;;;;;467997;254;1202;-40
2022/05/24 04:30:29;;;;;;;;;;;21.70;54.20;;;;;;465748;255;1388;-40
2022/05/24 04:32:31;;;;;;;;;;;21.70;54.30;;;;;;467495;255;1206;-39
2022/05/24 04:34:32;;;;;;;;;;;21.70;54.40;;;;;;465639;255;2139;-39
2022/05/24 04:36:33;;;;;;;;;;;21.70;54.30;;;;;;467798;254;1369;-39
2022/05/24 04:38:35;;;;;;;;;;;21.80;54.30;;;;;;465842;255;1196;-40
2022/05/24 04:43:03;;;;;;;;;;;21.70;54.30;;;;;;458825;256;1288;-39
2022/05/24 04:45:06;;;;;;;;;;;21.70;54.30;;;;;;467849;254;1311;-39
2022/05/24 04:47:08;;;;;;;;;;;21.70;54.30;;;;;;465529;256;2289;-40
2022/05/24 04:49:10;;;;;;;;;;;21.70;54.30;;;;;;467566;254;1266;-39
2022/05/24 04:51:11;;;;;;;;;;;21.80;54.20;;;;;;465671;255;1521;-40
2022/05/24 04:53:12;;;;;;;;;;;21.80;54.10;;;;;;467391;255;2188;-40
2022/05/24 04:55:14;;;;;;;;;;;21.80;54.10;;;;;;465832;255;1194;-39
2022/05/24 04:57:15;;;;;;;;;;;21.80;54.20;;;;;;467784;254;1220;-40
2022/05/24 04:59:17;;;;;;;;;;;21.80;54.20;;;;;;465615;255;1334;-40
2022/05/24 05:01:18;;;;;;;;;;;21.80;54.20;;;;;;467576;254;1262;-39
2022/05/24 05:03:19;;;;;;;;;;;21.80;54.20;;;;;;465754;255;1169;-39
2022/05/24 05:05:21;;;;;;;;;;;21.80;54.30;;;;;;467381;255;1260;-39
2022/05/24 05:07:22;;;;;;;;;;;21.80;54.20;;;;;;465688;255;1316;-39
2022/05/24 05:09:23;;;;;;;;;;;21.80;54.20;;;;;;467567;254;1203;-40
2022/05/24 05:11:25;;;;;;;;;;;21.80;54.30;;;;;;465638;255;1196;-39
2022/05/24 05:13:27;;;;;;;;;;;21.80;54.20;;;;;;467392;254;2136;-39
2022/05/24 05:15:28;;;;;;;;;;;21.80;54.20;;;;;;465639;255;1289;-40
2022/05/24 05:17:29;;;;;;;;;;;21.80;54.20;;;;;;467508;254;1374;-39
2022/05/24 05:19:31;;;;;;;;;;;21.80;54.20;;;;;;465746;255;1173;-39
2022/05/24 05:21:32;;;;;;;;;;;21.80;54.20;;;;;;467491;254;1237;-40
2022/05/24 05:23:33;;;;;;;;;;;21.80;54.20;;;;;;465616;255;1281;-40
2022/05/24 05:25:35;;;;;;;;;;;21.80;54.20;;;;;;467371;254;1236;-39
2022/05/24 05:27:36;;;;;;;;;;;21.80;54.20;;;;;;465398;255;1244;-40
2022/05/24 05:31:57;;;;;;;;;;;21.80;54.20;;;;;;465496;255;1245;-39
2022/05/24 05:33:58;;;;;;;;;;;21.80;54.30;;;;;;467256;255;2201;-39
2022/05/24 05:35:59;;;;;;;;;;;21.80;54.30;;;;;;465383;255;1270;-40
2022/05/24 05:38:00;;;;;;;;;;;21.70;54.30;;;;;;467401;254;1204;-39
2022/05/24 05:40:03;;;;;;;;;;;21.70;54.30;;;;;;465510;255;1246;-40
2022/05/24 05:42:04;;;;;;;;;;;21.80;54.20;;;;;;467531;254;2488;-39
2022/05/24 05:44:05;;;;;;;;;;;21.80;54.30;;;;;;465627;255;1166;-39
2022/05/24 05:46:07;;;;;;;;;;;21.80;54.20;;;;;;467384;254;1594;-39
2022/05/24 05:48:07;;;;;;;;;;;21.80;54.20;;;;;;465442;255;2585;-39
2022/05/24 05:50:09;;;;;;;;;;;21.80;54.20;;;;;;467454;254;1186;-40
2022/05/24 05:52:10;;;;;;;;;;;21.80;54.20;;;;;;465465;255;1282;-40
2022/05/24 05:54:11;;;;;;;;;;;21.80;54.30;;;;;;467237;254;2176;-40
2022/05/24 05:56:13;;;;;;;;;;;21.80;54.30;;;;;;465395;255;1262;-39
2022/05/24 05:58:14;;;;;;;;;;;21.80;54.20;;;;;;467264;255;1217;-40
2022/05/24 06:00:15;;;;;;;;;;;21.80;54.20;;;;;;465718;255;1182;-40
2022/05/24 06:02:17;;;;;;;;;;;21.70;54.30;;;;;;467300;254;1246;-39
2022/05/24 06:04:18;;;;;;;;;;;21.70;54.30;;;;;;465366;255;1376;-40
2022/05/24 06:06:19;;;;;;;;;;;21.80;54.30;;;;;;466848;254;1522;-39
2022/05/24 06:08:21;;;;;;;;;;;21.70;54.30;;;;;;465337;255;1538;-40
2022/05/24 06:10:22;;;;;;;;;;;21.80;54.40;;;;;;467000;255;1291;-39
2022/05/24 06:12:23;;;;;;;;;;;21.80;54.30;;;;;;465297;255;1565;-39
2022/05/24 06:14:25;;;;;;;;;;;21.80;54.30;;;;;;466918;255;2154;-39
2022/05/24 06:16:26;;;;;;;;;;;21.80;54.40;;;;;;465403;255;1210;-40
2022/05/24 06:18:28;;;;;;;;;;;21.80;54.20;;;;;;467161;255;1226;-39
2022/05/24 06:20:29;;;;;;;;;;;21.80;54.20;;;;;;465511;255;1785;-39
2022/05/24 06:22:30;;;;;;;;;;;21.80;54.20;;;;;;467100;255;1207;-39
2022/05/24 06:24:32;;;;;;;;;;;21.80;54.30;;;;;;465262;255;1337;-40
2022/05/24 06:26:33;;;;;;;;;;;21.80;54.30;;;;;;467152;254;1498;-40
2022/05/24 06:28:34;;;;;;;;;;;21.80;54.30;;;;;;465186;255;1161;-39
2022/05/24 06:30:36;;;;;;;;;;;21.80;54.30;;;;;;467068;254;1177;-39
2022/05/24 06:32:37;;;;;;;;;;;21.80;54.30;;;;;;465060;255;1308;-40
2022/05/24 06:34:38;;;;;;;;;;;21.80;54.40;;;;;;466981;254;2134;-39
2022/05/24 06:36:39;;;;;;;;;;;21.80;54.40;;;;;;465090;255;1233;-40
2022/05/24 06:38:41;;;;;;;;;;;21.80;54.50;;;;;;466968;255;1197;-39
2022/05/24 06:40:42;;;;;;;;;;;21.80;54.40;;;;;;465185;255;1191;-40
2022/05/24 06:42:44;;;;;;;;;;;21.80;54.40;;;;;;467188;255;1168;-40
2022/05/24 06:44:45;;;;;;;;;;;21.80;54.50;;;;;;465094;255;1231;-39
2022/05/24 06:46:47;;;;;;;;;;;21.80;54.40;;;;;;466810;254;1234;-40
2022/05/24 06:48:48;;;;;;;;;;;21.80;54.40;;;;;;465207;255;1172;-40
2022/05/24 06:50:49;;;;;;;;;;;21.80;54.40;;;;;;467124;254;1209;-39
2022/05/24 06:52:51;;;;;;;;;;;21.90;54.50;;;;;;465003;255;1295;-40
2022/05/24 06:54:53;;;;;;;;;;;21.80;54.50;;;;;;466928;254;2199;-39
2022/05/24 06:56:53;;;;;;;;;;;21.80;54.50;;;;;;464911;256;2119;-40
2022/05/24 07:02:25;;;;;;;;;;;21.80;54.50;;;;;;466737;254;1284;-40
2022/05/24 07:03:15;;;;;;;;;;;21.80;54.60;;;;;;466824;254;2034;-40
2022/05/24 07:05:17;;;;;;;;;;;21.80;54.60;;;;;;465148;255;1346;-40
2022/05/24 07:07:18;;;;;;;;;;;21.80;54.60;;;;;;467602;254;1192;-40
2022/05/24 07:09:19;;;;;;;;;;;21.80;54.60;;;;;;465443;255;1535;-39
2022/05/24 07:11:21;;;;;;;;;;;21.80;54.80;;;;;;466969;254;1199;-39
2022/05/24 07:13:22;;;;;;;;;;;21.80;54.60;;;;;;465345;255;1111;-39
2022/05/24 07:15:23;;;;;;;;;;;21.80;54.70;;;;;;467132;255;2216;-39
2022/05/24 07:17:24;;;;;;;;;;;21.70;54.70;;;;;;465316;255;1174;-39
2022/05/24 07:19:27;;;;;;;;;;;21.80;54.80;;;;;;467147;255;1216;-39
2022/05/24 07:21:27;;;;;;;;;;;21.80;54.80;;;;;;464914;255;2276;-40
2022/05/24 07:23:28;;;;;;;;;;;21.80;54.80;;;;;;466866;254;1322;-39
2022/05/24 07:25:30;;;;;;;;;;;21.80;54.80;;;;;;465112;255;1232;-39
2022/05/24 07:27:31;;;;;;;;;;;21.80;54.80;;;;;;466850;254;1283;-40
2022/05/24 07:29:33;;;;;;;;;;;21.80;54.80;;;;;;464973;255;1258;-39
2022/05/24 07:31:34;;;;;;;;;;;21.80;54.90;;;;;;466837;254;1313;-39
2022/05/24 07:33:36;;;;;;;;;;;21.80;54.90;;;;;;465014;255;1155;-39
2022/05/24 07:35:37;;;;;;;;;;;21.80;54.90;;;;;;466713;255;2195;-39
2022/05/24 07:37:38;;;;;;;;;;;21.80;55.00;;;;;;464741;256;2419;-40
2022/05/24 07:39:39;;;;;;;;;;;21.80;54.80;;;;;;466705;254;1241;-40
2022/05/24 07:46:19;;;;;;;;;;;21.70;55.00;;;;;;464935;255;1225;-39
2022/05/24 07:48:20;;;;;;;;;;;21.80;55.00;;;;;;466897;254;1235;-40
2022/05/24 07:50:22;;;;;;;;;;;21.70;55.00;;;;;;465149;255;1338;-40
2022/05/24 07:52:23;;;;;;;;;;;21.70;55.10;;;;;;466761;254;1263;-40
2022/05/24 07:54:24;;;;;;;;;;;21.80;55.10;;;;;;465005;255;2138;-40
2022/05/24 07:56:26;;;;;;;;;;;21.80;55.10;;;;;;466744;255;1248;-39
2022/05/24 07:58:27;;;;;;;;;;;21.80;55.10;;;;;;464932;255;1228;-39
2022/05/24 08:00:29;;;;;;;;;;;21.80;55.00;;;;;;466856;254;1257;-39
2022/05/24 08:02:30;;;;;;;;;;;21.80;55.10;;;;;;464946;255;1211;-40
2022/05/24 08:04:31;;;;;;;;;;;21.80;55.20;;;;;;467186;255;1135;-39
2022/05/24 08:06:33;;;;;;;;;;;21.80;55.10;;;;;;465479;255;1067;-39
2022/05/24 08:08:34;;;;;;;;;;;21.80;55.10;;;;;;466779;255;1172;-39
2022/05/24 08:10:35;;;;;;;;;;;21.80;55.00;;;;;;464851;255;1334;-39
2022/05/24 08:12:37;;;;;;;;;;;21.80;55.00;;;;;;466553;254;1266;-39
2022/05/24 08:14:38;;;;;;;;;;;21.80;55.00;;;;;;464866;255;2131;-39
2022/05/24 08:16:39;;;;;;;;;;;21.80;55.00;;;;;;466768;254;1363;-39
2022/05/24 08:18:40;;;;;;;;;;;21.80;55.00;;;;;;464933;255;1226;-40
2022/05/24 08:20:42;;;;;;;;;;;21.80;55.00;;;;;;467169;254;1097;-40
2022/05/24 08:22:43;;;;;;;;;;;21.80;55.00;;;;;;464996;255;1151;-39
2022/05/24 08:24:44;;;;;;;;;;;21.80;55.00;;;;;;466870;255;875;-39
2022/05/24 08:26:46;;;;;;;;;;;21.80;55.00;;;;;;465499;255;1170;-40
2022/05/24 08:28:47;;;;;;;;;;;21.80;55.10;;;;;;466945;254;1255;-40
2022/05/24 08:30:50;;;;;;;;;;;21.80;55.10;;;;;;465016;255;1088;-39
2022/05/24 08:32:50;;;;;;;;;;;21.80;55.20;;;;;;466702;255;2300;-40
2022/05/24 08:34:51;;;;;;;;;;;21.80;55.10;;;;;;464963;255;2141;-39
2022/05/24 08:36:52;;;;;;;;;;;21.80;55.20;;;;;;466779;254;1350;-39
2022/05/24 08:38:54;;;;;;;;;;;21.80;55.10;;;;;;465170;255;1272;-39
2022/05/24 08:40:55;;;;;;;;;;;21.80;55.00;;;;;;466726;254;1406;-39
2022/05/24 08:42:56;;;;;;;;;;;21.80;55.00;;;;;;464904;255;1113;-39
2022/05/24 08:49:35;;;;;;;;;;;21.70;55.20;;;;;;466904;254;1190;-39
2022/05/24 08:51:37;;;;;;;;;;;21.80;55.20;;;;;;464782;255;1142;-40
2022/05/24 08:53:39;;;;;;;;;;;21.80;55.10;;;;;;467078;254;1070;-40
2022/05/24 08:55:40;;;;;;;;;;;21.80;55.00;;;;;;465341;255;2216;-40
2022/05/24 08:57:42;;;;;;;;;;;21.80;55.10;;;;;;466775;255;1394;-40
2022/05/24 08:59:42;;;;;;;;;;;21.80;55.20;;;;;;464799;255;2259;-39
2022/05/24 09:01:44;;;;;;;;;;;21.80;55.20;;;;;;466832;254;1228;-40
2022/05/24 09:03:45;;;;;;;;;;;21.80;55.20;;;;;;465021;255;1362;-40
2022/05/24 09:05:47;;;;;;;;;;;21.80;55.20;;;;;;466870;255;1140;-40
2022/05/24 09:07:49;;;;;;;;;;;21.80;55.10;;;;;;464985;255;1324;-39
2022/05/24 09:09:50;;;;;;;;;;;21.80;55.20;;;;;;466865;255;1318;-40
2022/05/24 09:11:52;;;;;;;;;;;21.80;55.10;;;;;;465021;254;1471;-39
2022/05/24 09:13:53;;;;;;;;;;;21.80;55.10;;;;;;466620;254;1154;-40
2022/05/24 09:15:54;;;;;;;;;;;21.80;55.20;;;;;;464907;255;2197;-40
2022/05/24 09:17:56;;;;;;;;;;;21.80;55.10;;;;;;466737;254;1254;-40
2022/05/24 09:19:57;;;;;;;;;;;21.80;55.20;;;;;;465066;255;1244;-39
2022/05/24 09:21:58;;;;;;;;;;;21.80;55.30;;;;;;466613;254;1455;-40
2022/05/24 09:24:00;;;;;;;;;;;21.80;55.30;;;;;;464700;255;1147;-39
2022/05/24 09:26:01;;;;;;;;;;;21.80;55.30;;;;;;465747;255;1340;-40
2022/05/24 09:28:02;;;;;;;;;;;21.70;55.30;;;;;;464842;255;1465;-39
2022/05/24 09:30:04;;;;;;;;;;;21.80;55.30;;;;;;467101;254;1086;-40
2022/05/24 09:32:05;;;;;;;;;;;21.80;55.30;;;;;;465441;255;1065;-40
2022/05/24 09:34:07;;;;;;;;;;;21.80;55.30;;;;;;467339;254;1039;-39
2022/05/24 09:36:07;;;;;;;;;;;21.80;55.30;;;;;;464885;255;2202;-40
2022/05/24 09:38:11;;;;;;;;;;;21.80;55.30;;;;;;466525;254;1323;-39
2022/05/24 09:40:10;;;;;;;;;;;21.80;55.30;;;;;;465431;256;2048;-39
2022/05/24 09:42:12;;;;;;;;;;;21.80;55.40;;;;;;467297;254;1097;-40
2022/05/24 09:44:13;;;;;;;;;;;21.80;55.40;;;;;;465796;255;1145;-39
2022/05/24 09:46:14;;;;;;;;;;;21.80;55.40;;;;;;466929;255;1284;-40
2022/05/24 09:48:16;;;;;;;;;;;21.80;55.30;;;;;;464945;255;1246;-40
2022/05/24 09:50:17;;;;;;;;;;;21.80;55.30;;;;;;466858;254;1296;-40
2022/05/24 09:52:18;;;;;;;;;;;21.80;55.20;;;;;;464825;255;1259;-39
2022/05/24 09:54:20;;;;;;;;;;;21.80;55.20;;;;;;466704;254;1337;-39
2022/05/24 09:56:21;;;;;;;;;;;21.80;55.30;;;;;;464976;255;2114;-39
2022/05/24 09:58:22;;;;;;;;;;;21.80;55.20;;;;;;466816;254;1512;-40
2022/05/24 10:00:24;;;;;;;;;;;21.80;55.20;;;;;;464944;255;1307;-39
2022/05/24 10:02:25;;;;;;;;;;;21.80;55.20;;;;;;466977;254;1322;-39
2022/05/24 10:04:27;;;;;;;;;;;21.80;55.30;;;;;;465259;255;1267;-40
2022/05/24 10:06:28;;;;;;;;;;;21.80;55.40;;;;;;467047;255;2216;-39
2022/05/24 10:08:29;;;;;;;;;;;21.80;55.30;;;;;;465254;255;2479;-39
2022/05/24 10:10:30;;;;;;;;;;;21.80;55.40;;;;;;467176;255;1454;-40
2022/05/24 10:12:31;;;;;;;;;;;21.80;55.40;;;;;;465072;256;1094;-40
2022/05/24 10:14:33;;;;;;;;;;;21.80;55.30;;;;;;466963;255;1116;-40
2022/05/24 10:16:34;;;;;;;;;;;21.80;55.30;;;;;;465542;255;2190;-39
2022/05/24 10:18:35;;;;;;;;;;;21.80;55.20;;;;;;467053;255;1497;-40
2022/05/24 10:20:37;;;;;;;;;;;21.80;55.30;;;;;;465324;255;1116;-39
2022/05/24 10:22:38;;;;;;;;;;;21.80;55.40;;;;;;467193;255;1069;-40
2022/05/24 10:24:39;;;;;;;;;;;21.80;55.40;;;;;;465279;255;1274;-39
2022/05/24 10:26:41;;;;;;;;;;;21.80;55.30;;;;;;466862;255;1276;-40
2022/05/24 10:28:42;;;;;;;;;;;21.80;55.30;;;;;;464627;255;1306;-39
2022/05/24 10:30:43;;;;;;;;;;;21.80;55.30;;;;;;466822;255;1195;-40
2022/05/24 10:39:45;;;;;;;;;;;21.80;55.20;;;;;;456433;255;1643;-40
2022/05/24 10:41:45;;;;;;;;;;;21.80;55.30;;;;;;464888;255;2182;-39
2022/05/24 10:43:46;;;;;;;;;;;21.80;55.20;;;;;;467165;254;1180;-40
2022/05/24 10:45:51;;;;;;;;;;;21.90;55.20;;;;;;465157;255;1369;-40
2022/05/24 10:47:52;;;;;;;;;;;21.80;55.30;;;;;;466728;255;1372;-40
2022/05/24 10:49:56;;;;;;;;;;;21.80;55.40;;;;;;465079;255;1376;-40
2022/05/24 10:51:55;;;;;;;;;;;21.80;55.30;;;;;;466422;255;2215;-40
2022/05/24 10:53:56;;;;;;;;;;;21.80;55.30;;;;;;464788;255;2621;-40
2022/05/24 10:55:57;;;;;;;;;;;21.80;55.30;;;;;;466630;254;2142;-39
2022/05/24 10:57:59;;;;;;;;;;;21.80;55.30;;;;;;465227;255;1694;-40
2022/05/24 11:00:00;;;;;;;;;;;21.80;55.30;;;;;;466944;254;1141;-40
2022/05/24 11:02:01;;;;;;;;;;;21.80;55.30;;;;;;465030;255;1250;-39
2022/05/24 11:04:03;;;;;;;;;;;21.80;55.30;;;;;;466956;255;1714;-39
2022/05/24 11:06:04;;;;;;;;;;;21.80;55.20;;;;;;465606;255;1228;-39
2022/05/24 11:08:05;;;;;;;;;;;21.80;55.30;;;;;;466704;254;1340;-39
2022/05/24 11:10:09;;;;;;;;;;;21.80;55.40;;;;;;465317;255;1178;-40
2022/05/24 11:12:08;;;;;;;;;;;21.80;55.30;;;;;;466679;255;2357;-39
2022/05/24 11:14:10;;;;;;;;;;;21.80;55.40;;;;;;465141;255;1454;-39
2022/05/24 11:16:11;;;;;;;;;;;21.80;55.30;;;;;;466438;254;2294;-39
2022/05/24 11:18:12;;;;;;;;;;;21.80;55.30;;;;;;464883;255;1233;-40
2022/05/24 11:20:13;;;;;;;;;;;21.80;55.30;;;;;;466869;254;1536;-39
2022/05/24 11:22:15;;;;;;;;;;;21.80;55.30;;;;;;464951;255;1262;-40
2022/05/24 11:24:17;;;;;;;;;;;21.90;55.30;;;;;;467135;255;1181;-39
2022/05/24 11:26:20;;;;;;;;;;;21.80;55.40;;;;;;465375;255;1229;-39
2022/05/24 11:28:20;;;;;;;;;;;21.80;55.40;;;;;;466905;255;2202;-40
2022/05/24 11:30:21;;;;;;;;;;;21.80;55.30;;;;;;464913;255;1065;-39
2022/05/24 11:32:22;;;;;;;;;;;21.80;55.40;;;;;;466641;255;1122;-40
2022/05/24 11:34:24;;;;;;;;;;;21.80;55.40;;;;;;464868;255;999;-39
2022/05/24 11:36:25;;;;;;;;;;;21.80;55.40;;;;;;467014;254;2200;-39
2022/05/24 11:38:26;;;;;;;;;;;21.80;55.50;;;;;;464882;255;1203;-40
2022/05/24 11:40:29;;;;;;;;;;;21.80;55.40;;;;;;466864;255;1284;-39
2022/05/24 11:42:32;;;;;;;;;;;21.80;55.30;;;;;;465056;255;1260;-40
2022/05/24 11:44:31;;;;;;;;;;;21.80;55.40;;;;;;466713;255;1950;-40
2022/05/24 11:46:33;;;;;;;;;;;21.80;55.30;;;;;;465053;255;1422;-40
2022/05/24 11:48:34;;;;;;;;;;;21.80;55.30;;;;;;466768;255;1284;-40
2022/05/24 11:50:35;;;;;;;;;;;21.70;55.40;;;;;;464852;255;1178;-39
2022/05/24 11:52:37;;;;;;;;;;;21.80;55.50;;;;;;466689;254;1258;-39
2022/05/24 11:54:39;;;;;;;;;;;21.80;55.50;;;;;;464801;255;1208;-39
2022/05/24 11:56:40;;;;;;;;;;;21.80;55.50;;;;;;466837;255;2201;-40
2022/05/24 11:58:41;;;;;;;;;;;21.80;55.60;;;;;;465124;255;1257;-40
2022/05/24 12:00:43;;;;;;;;;;;21.80;55.50;;;;;;466648;255;1255;-39
2022/05/24 12:09:41;;;;;;;;;;;21.80;55.50;;;;;;467005;254;1143;-40
2022/05/24 12:11:43;;;;;;;;;;;21.80;55.50;;;;;;465067;255;1188;-39
2022/05/24 12:13:44;;;;;;;;;;;21.80;55.50;;;;;;466777;255;1300;-39
2022/05/24 12:15:46;;;;;;;;;;;21.80;55.40;;;;;;464912;255;2205;-39
2022/05/24 12:17:47;;;;;;;;;;;21.70;55.50;;;;;;466469;255;1954;-39
2022/05/24 12:19:48;;;;;;;;;;;21.80;55.50;;;;;;464784;255;1258;-39
2022/05/24 12:21:50;;;;;;;;;;;21.80;55.50;;;;;;466762;255;1361;-39
2022/05/24 12:23:51;;;;;;;;;;;21.80;55.30;;;;;;465079;255;1187;-39
2022/05/24 12:25:52;;;;;;;;;;;21.80;55.40;;;;;;466874;254;1207;-39
2022/05/24 12:27:54;;;;;;;;;;;21.80;55.30;;;;;;464805;255;1248;-39
2022/05/24 12:29:55;;;;;;;;;;;21.80;55.40;;;;;;466850;254;1052;-40
2022/05/24 12:31:57;;;;;;;;;;;21.80;55.40;;;;;;464875;255;1478;-40
2022/05/24 12:33:58;;;;;;;;;;;21.80;55.40;;;;;;466990;254;1267;-40
2022/05/24 12:35:59;;;;;;;;;;;21.80;55.40;;;;;;465096;255;2198;-39
2022/05/24 12:38:00;;;;;;;;;;;21.80;55.30;;;;;;466636;255;1301;-40
2022/05/24 12:40:02;;;;;;;;;;;21.80;55.30;;;;;;464969;255;1250;-39
2022/05/24 12:42:04;;;;;;;;;;;21.80;55.30;;;;;;466699;254;1459;-40